sensor_id;sensor_type;location;lat;lon;timestamp;P1;durP1;ratioP1;P2;durP2;ratioP2
66597;SDS011;57424;53.128;6.406;2022-07-22T00:00:00;1.67;;;0.88;;
66597;SDS011;57424;53.128;6.406;2022-07-22T00:02:26;1.83;;;0.75;;
66597;SDS011;57424;53.128;6.406;2022-07-22T00:04:51;1.73;;;1.13;;
66597;SDS011;57424;53.128;6.406;2022-07-22T00:07:17;2.03;;;1.10;;
66597;SDS011;57424;53.128;6.406;2022-07-22T00:09:43;2.05;;;1.02;;
66597;SDS011;57424;53.128;6.406;2022-07-22T00:12:08;3.58;;;0.90;;
66597;SDS011;57424;53.128;6.406;2022-07-22T00:14:35;3.08;;;0.88;;
66597;SDS011;57424;53.128;6.406;2022-07-22T00:17:00;2.88;;;0.80;;
66597;SDS011;57424;53.128;6.406;2022-07-22T00:19:26;1.92;;;0.77;;
66597;SDS011;57424;53.128;6.406;2022-07-22T00:21:52;3.10;;;0.80;;
66597;SDS011;57424;53.128;6.406;2022-07-22T00:24:18;3.38;;;1.10;;
66597;SDS011;57424;53.128;6.406;2022-07-22T00:26:44;1.55;;;0.80;;
66597;SDS011;57424;53.128;6.406;2022-07-22T00:29:09;1.52;;;0.75;;
66597;SDS011;57424;53.128;6.406;2022-07-22T00:31:35;1.88;;;1.00;;
66597;SDS011;57424;53.128;6.406;2022-07-22T00:34:00;3.75;;;1.08;;
66597;SDS011;57424;53.128;6.406;2022-07-22T00:36:27;1.85;;;0.90;;
66597;SDS011;57424;53.128;6.406;2022-07-22T00:38:56;2.10;;;0.90;;
66597;SDS011;57424;53.128;6.406;2022-07-22T00:41:21;1.58;;;0.85;;
66597;SDS011;57424;53.128;6.406;2022-07-22T00:43:48;1.90;;;0.90;;
66597;SDS011;57424;53.128;6.406;2022-07-22T00:46:23;2.05;;;1.10;;
66597;SDS011;57424;53.128;6.406;2022-07-22T00:48:49;2.42;;;1.00;;
66597;SDS011;57424;53.128;6.406;2022-07-22T00:51:16;2.80;;;0.88;;
66597;SDS011;57424;53.128;6.406;2022-07-22T00:53:42;2.40;;;0.85;;
66597;SDS011;57424;53.128;6.406;2022-07-22T00:56:09;2.72;;;1.00;;
66597;SDS011;57424;53.128;6.406;2022-07-22T00:58:35;2.67;;;1.02;;
66597;SDS011;57424;53.128;6.406;2022-07-22T01:01:01;1.95;;;1.00;;
66597;SDS011;57424;53.128;6.406;2022-07-22T01:03:26;6.75;;;1.05;;
66597;SDS011;57424;53.128;6.406;2022-07-22T01:05:52;3.08;;;1.30;;
66597;SDS011;57424;53.128;6.406;2022-07-22T01:08:18;3.67;;;1.15;;
66597;SDS011;57424;53.128;6.406;2022-07-22T01:10:43;2.90;;;1.25;;
66597;SDS011;57424;53.128;6.406;2022-07-22T01:13:09;2.13;;;1.00;;
66597;SDS011;57424;53.128;6.406;2022-07-22T01:15:35;2.58;;;0.95;;
66597;SDS011;57424;53.128;6.406;2022-07-22T01:18:01;2.63;;;1.02;;
66597;SDS011;57424;53.128;6.406;2022-07-22T01:20:27;2.83;;;1.10;;
66597;SDS011;57424;53.128;6.406;2022-07-22T01:22:53;2.83;;;1.20;;
66597;SDS011;57424;53.128;6.406;2022-07-22T01:25:18;2.17;;;1.05;;
66597;SDS011;57424;53.128;6.406;2022-07-22T01:27:44;3.00;;;0.95;;
66597;SDS011;57424;53.128;6.406;2022-07-22T01:30:09;2.13;;;0.93;;
66597;SDS011;57424;53.128;6.406;2022-07-22T01:32:35;3.38;;;1.08;;
66597;SDS011;57424;53.128;6.406;2022-07-22T01:35:01;2.33;;;1.20;;
66597;SDS011;57424;53.128;6.406;2022-07-22T01:37:27;2.08;;;1.10;;
66597;SDS011;57424;53.128;6.406;2022-07-22T01:39:53;4.35;;;1.30;;
66597;SDS011;57424;53.128;6.406;2022-07-22T01:42:18;4.07;;;1.13;;
66597;SDS011;57424;53.128;6.406;2022-07-22T01:44:44;1.80;;;1.05;;
66597;SDS011;57424;53.128;6.406;2022-07-22T01:47:09;2.67;;;1.17;;
66597;SDS011;57424;53.128;6.406;2022-07-22T01:49:35;3.10;;;0.95;;
66597;SDS011;57424;53.128;6.406;2022-07-22T01:52:03;3.05;;;1.08;;
66597;SDS011;57424;53.128;6.406;2022-07-22T01:56:54;2.35;;;0.90;;
66597;SDS011;57424;53.128;6.406;2022-07-22T01:59:20;1.70;;;1.10;;
66597;SDS011;57424;53.128;6.406;2022-07-22T02:01:46;2.42;;;0.88;;
66597;SDS011;57424;53.128;6.406;2022-07-22T02:04:11;1.95;;;0.90;;
66597;SDS011;57424;53.128;6.406;2022-07-22T02:06:37;2.00;;;0.90;;
66597;SDS011;57424;53.128;6.406;2022-07-22T02:09:03;1.35;;;0.90;;
66597;SDS011;57424;53.128;6.406;2022-07-22T02:11:29;2.33;;;1.00;;
66597;SDS011;57424;53.128;6.406;2022-07-22T02:13:54;4.50;;;1.40;;
66597;SDS011;57424;53.128;6.406;2022-07-22T02:16:21;1.60;;;1.00;;
66597;SDS011;57424;53.128;6.406;2022-07-22T02:18:46;0.75;;;0.70;;
66597;SDS011;57424;53.128;6.406;2022-07-22T02:21:12;3.30;;;1.10;;
66597;SDS011;57424;53.128;6.406;2022-07-22T02:23:37;1.88;;;1.08;;
66597;SDS011;57424;53.128;6.406;2022-07-22T02:26:03;3.53;;;0.90;;
66597;SDS011;57424;53.128;6.406;2022-07-22T02:28:29;3.42;;;1.00;;
66597;SDS011;57424;53.128;6.406;2022-07-22T02:30:54;2.97;;;1.20;;
66597;SDS011;57424;53.128;6.406;2022-07-22T02:33:20;2.80;;;1.00;;
66597;SDS011;57424;53.128;6.406;2022-07-22T02:35:45;2.22;;;1.02;;
66597;SDS011;57424;53.128;6.406;2022-07-22T02:38:11;2.10;;;0.90;;
66597;SDS011;57424;53.128;6.406;2022-07-22T02:40:36;1.45;;;0.90;;
66597;SDS011;57424;53.128;6.406;2022-07-22T02:43:02;2.95;;;0.95;;
66597;SDS011;57424;53.128;6.406;2022-07-22T02:45:31;0.98;;;0.80;;
66597;SDS011;57424;53.128;6.406;2022-07-22T02:47:57;2.60;;;1.10;;
66597;SDS011;57424;53.128;6.406;2022-07-22T02:50:23;2.25;;;1.17;;
66597;SDS011;57424;53.128;6.406;2022-07-22T02:52:50;2.55;;;1.02;;
66597;SDS011;57424;53.128;6.406;2022-07-22T02:55:16;4.07;;;1.10;;
66597;SDS011;57424;53.128;6.406;2022-07-22T02:57:42;2.70;;;1.27;;
66597;SDS011;57424;53.128;6.406;2022-07-22T03:00:08;3.10;;;1.10;;
66597;SDS011;57424;53.128;6.406;2022-07-22T03:02:35;2.08;;;1.10;;
66597;SDS011;57424;53.128;6.406;2022-07-22T03:05:01;2.65;;;1.00;;
66597;SDS011;57424;53.128;6.406;2022-07-22T03:07:27;1.77;;;0.90;;
66597;SDS011;57424;53.128;6.406;2022-07-22T03:09:53;2.08;;;1.25;;
66597;SDS011;57424;53.128;6.406;2022-07-22T03:12:18;2.17;;;1.20;;
66597;SDS011;57424;53.128;6.406;2022-07-22T03:14:44;1.63;;;0.90;;
66597;SDS011;57424;53.128;6.406;2022-07-22T03:17:09;2.30;;;1.25;;
66597;SDS011;57424;53.128;6.406;2022-07-22T03:19:35;1.83;;;0.93;;
66597;SDS011;57424;53.128;6.406;2022-07-22T03:22:00;2.75;;;1.05;;
66597;SDS011;57424;53.128;6.406;2022-07-22T03:24:26;1.27;;;0.80;;
66597;SDS011;57424;53.128;6.406;2022-07-22T03:26:52;1.67;;;1.00;;
66597;SDS011;57424;53.128;6.406;2022-07-22T03:29:18;2.65;;;0.90;;
66597;SDS011;57424;53.128;6.406;2022-07-22T03:31:43;2.03;;;1.00;;
66597;SDS011;57424;53.128;6.406;2022-07-22T03:34:09;1.85;;;1.05;;
66597;SDS011;57424;53.128;6.406;2022-07-22T03:36:34;1.30;;;1.00;;
66597;SDS011;57424;53.128;6.406;2022-07-22T03:39:00;1.23;;;0.80;;
66597;SDS011;57424;53.128;6.406;2022-07-22T03:41:26;2.25;;;0.90;;
66597;SDS011;57424;53.128;6.406;2022-07-22T03:43:51;1.73;;;0.88;;
66597;SDS011;57424;53.128;6.406;2022-07-22T03:46:17;1.92;;;0.98;;
66597;SDS011;57424;53.128;6.406;2022-07-22T03:48:43;1.80;;;0.90;;
66597;SDS011;57424;53.128;6.406;2022-07-22T03:51:09;1.40;;;0.85;;
66597;SDS011;57424;53.128;6.406;2022-07-22T03:53:34;2.55;;;1.13;;
66597;SDS011;57424;53.128;6.406;2022-07-22T03:56:00;2.60;;;1.08;;
66597;SDS011;57424;53.128;6.406;2022-07-22T03:58:26;2.00;;;0.75;;
66597;SDS011;57424;53.128;6.406;2022-07-22T04:00:52;1.23;;;0.70;;
66597;SDS011;57424;53.128;6.406;2022-07-22T04:03:18;1.40;;;0.82;;
66597;SDS011;57424;53.128;6.406;2022-07-22T04:05:44;2.65;;;1.15;;
66597;SDS011;57424;53.128;6.406;2022-07-22T04:08:11;3.05;;;1.00;;
66597;SDS011;57424;53.128;6.406;2022-07-22T04:10:37;2.77;;;1.20;;
66597;SDS011;57424;53.128;6.406;2022-07-22T04:13:03;1.98;;;0.93;;
66597;SDS011;57424;53.128;6.406;2022-07-22T04:15:29;1.73;;;1.00;;
66597;SDS011;57424;53.128;6.406;2022-07-22T04:17:54;1.30;;;0.90;;
66597;SDS011;57424;53.128;6.406;2022-07-22T04:20:20;1.77;;;1.00;;
66597;SDS011;57424;53.128;6.406;2022-07-22T04:22:46;2.35;;;1.10;;
66597;SDS011;57424;53.128;6.406;2022-07-22T04:25:11;1.55;;;0.70;;
66597;SDS011;57424;53.128;6.406;2022-07-22T04:27:37;1.70;;;1.23;;
66597;SDS011;57424;53.128;6.406;2022-07-22T04:30:03;1.85;;;0.90;;
66597;SDS011;57424;53.128;6.406;2022-07-22T04:32:29;1.88;;;0.90;;
66597;SDS011;57424;53.128;6.406;2022-07-22T04:34:55;2.45;;;0.95;;
66597;SDS011;57424;53.128;6.406;2022-07-22T04:37:20;1.98;;;0.88;;
66597;SDS011;57424;53.128;6.406;2022-07-22T04:39:46;2.60;;;1.00;;
66597;SDS011;57424;53.128;6.406;2022-07-22T04:42:11;1.90;;;0.98;;
66597;SDS011;57424;53.128;6.406;2022-07-22T04:44:37;2.03;;;0.82;;
66597;SDS011;57424;53.128;6.406;2022-07-22T04:47:02;1.30;;;0.80;;
66597;SDS011;57424;53.128;6.406;2022-07-22T04:49:28;4.63;;;1.13;;
66597;SDS011;57424;53.128;6.406;2022-07-22T04:51:54;2.42;;;0.95;;
66597;SDS011;57424;53.128;6.406;2022-07-22T04:54:19;2.15;;;0.80;;
66597;SDS011;57424;53.128;6.406;2022-07-22T04:56:45;1.45;;;0.80;;
66597;SDS011;57424;53.128;6.406;2022-07-22T04:59:10;2.17;;;1.00;;
66597;SDS011;57424;53.128;6.406;2022-07-22T05:01:36;2.05;;;1.00;;
66597;SDS011;57424;53.128;6.406;2022-07-22T05:04:01;1.33;;;0.95;;
66597;SDS011;57424;53.128;6.406;2022-07-22T05:06:27;1.63;;;0.75;;
66597;SDS011;57424;53.128;6.406;2022-07-22T05:08:53;2.58;;;0.98;;
66597;SDS011;57424;53.128;6.406;2022-07-22T05:11:18;1.92;;;0.80;;
66597;SDS011;57424;53.128;6.406;2022-07-22T05:13:44;2.38;;;1.05;;
66597;SDS011;57424;53.128;6.406;2022-07-22T05:16:09;1.55;;;1.00;;
66597;SDS011;57424;53.128;6.406;2022-07-22T05:18:35;2.22;;;0.90;;
66597;SDS011;57424;53.128;6.406;2022-07-22T05:21:01;1.52;;;0.90;;
66597;SDS011;57424;53.128;6.406;2022-07-22T05:23:27;1.42;;;0.90;;
66597;SDS011;57424;53.128;6.406;2022-07-22T05:25:53;2.80;;;0.93;;
66597;SDS011;57424;53.128;6.406;2022-07-22T05:28:18;1.42;;;0.90;;
66597;SDS011;57424;53.128;6.406;2022-07-22T05:30:44;2.03;;;0.90;;
66597;SDS011;57424;53.128;6.406;2022-07-22T05:33:10;2.03;;;0.88;;
66597;SDS011;57424;53.128;6.406;2022-07-22T05:35:36;1.90;;;0.75;;
66597;SDS011;57424;53.128;6.406;2022-07-22T05:38:01;1.50;;;1.00;;
66597;SDS011;57424;53.128;6.406;2022-07-22T05:40:28;2.15;;;0.90;;
66597;SDS011;57424;53.128;6.406;2022-07-22T05:42:54;1.75;;;0.98;;
66597;SDS011;57424;53.128;6.406;2022-07-22T05:45:19;1.42;;;1.10;;
66597;SDS011;57424;53.128;6.406;2022-07-22T05:47:45;2.30;;;1.10;;
66597;SDS011;57424;53.128;6.406;2022-07-22T05:50:11;2.92;;;1.15;;
66597;SDS011;57424;53.128;6.406;2022-07-22T05:52:36;2.75;;;1.20;;
66597;SDS011;57424;53.128;6.406;2022-07-22T05:55:03;1.43;;;0.87;;
66597;SDS011;57424;53.128;6.406;2022-07-22T05:57:30;1.27;;;0.85;;
66597;SDS011;57424;53.128;6.406;2022-07-22T05:59:56;2.15;;;0.93;;
66597;SDS011;57424;53.128;6.406;2022-07-22T06:02:21;1.02;;;0.90;;
66597;SDS011;57424;53.128;6.406;2022-07-22T06:04:47;2.03;;;1.10;;
66597;SDS011;57424;53.128;6.406;2022-07-22T06:07:13;2.38;;;1.02;;
66597;SDS011;57424;53.128;6.406;2022-07-22T06:09:38;3.25;;;1.13;;
66597;SDS011;57424;53.128;6.406;2022-07-22T06:12:04;1.83;;;1.02;;
66597;SDS011;57424;53.128;6.406;2022-07-22T06:14:30;2.60;;;0.95;;
66597;SDS011;57424;53.128;6.406;2022-07-22T06:16:56;2.05;;;0.95;;
66597;SDS011;57424;53.128;6.406;2022-07-22T06:19:22;0.93;;;0.75;;
66597;SDS011;57424;53.128;6.406;2022-07-22T06:21:49;1.10;;;0.80;;
66597;SDS011;57424;53.128;6.406;2022-07-22T06:24:15;1.95;;;0.80;;
66597;SDS011;57424;53.128;6.406;2022-07-22T06:26:40;1.67;;;0.95;;
66597;SDS011;57424;53.128;6.406;2022-07-22T06:29:06;2.67;;;0.93;;
66597;SDS011;57424;53.128;6.406;2022-07-22T06:31:32;2.42;;;1.02;;
66597;SDS011;57424;53.128;6.406;2022-07-22T06:33:57;1.50;;;0.90;;
66597;SDS011;57424;53.128;6.406;2022-07-22T06:36:23;1.00;;;0.90;;
66597;SDS011;57424;53.128;6.406;2022-07-22T06:38:48;1.42;;;0.90;;
66597;SDS011;57424;53.128;6.406;2022-07-22T06:41:14;0.88;;;0.80;;
66597;SDS011;57424;53.128;6.406;2022-07-22T06:43:43;1.95;;;1.10;;
66597;SDS011;57424;53.128;6.406;2022-07-22T06:46:08;1.90;;;0.90;;
66597;SDS011;57424;53.128;6.406;2022-07-22T06:48:34;2.47;;;0.90;;
66597;SDS011;57424;53.128;6.406;2022-07-22T06:51:00;2.45;;;0.90;;
66597;SDS011;57424;53.128;6.406;2022-07-22T06:53:26;2.22;;;0.93;;
66597;SDS011;57424;53.128;6.406;2022-07-22T06:55:51;2.05;;;0.90;;
66597;SDS011;57424;53.128;6.406;2022-07-22T06:58:17;2.20;;;1.02;;
66597;SDS011;57424;53.128;6.406;2022-07-22T07:00:43;3.15;;;1.00;;
66597;SDS011;57424;53.128;6.406;2022-07-22T07:03:08;1.65;;;0.90;;
66597;SDS011;57424;53.128;6.406;2022-07-22T07:05:34;2.30;;;1.15;;
66597;SDS011;57424;53.128;6.406;2022-07-22T07:07:59;1.70;;;0.90;;
66597;SDS011;57424;53.128;6.406;2022-07-22T07:10:25;1.10;;;0.90;;
66597;SDS011;57424;53.128;6.406;2022-07-22T07:12:54;3.38;;;1.02;;
66597;SDS011;57424;53.128;6.406;2022-07-22T07:15:21;1.25;;;0.90;;
66597;SDS011;57424;53.128;6.406;2022-07-22T07:17:46;2.08;;;0.98;;
66597;SDS011;57424;53.128;6.406;2022-07-22T07:20:12;2.08;;;1.00;;
66597;SDS011;57424;53.128;6.406;2022-07-22T07:22:38;2.28;;;0.90;;
66597;SDS011;57424;53.128;6.406;2022-07-22T07:25:04;1.45;;;0.90;;
66597;SDS011;57424;53.128;6.406;2022-07-22T07:27:30;1.98;;;0.88;;
66597;SDS011;57424;53.128;6.406;2022-07-22T07:29:56;2.20;;;0.90;;
66597;SDS011;57424;53.128;6.406;2022-07-22T07:32:22;8.55;;;1.35;;
66597;SDS011;57424;53.128;6.406;2022-07-22T07:34:47;2.15;;;1.10;;
66597;SDS011;57424;53.128;6.406;2022-07-22T07:37:13;2.13;;;1.15;;
66597;SDS011;57424;53.128;6.406;2022-07-22T07:39:39;2.13;;;0.88;;
66597;SDS011;57424;53.128;6.406;2022-07-22T07:42:04;3.17;;;1.10;;
66597;SDS011;57424;53.128;6.406;2022-07-22T07:44:30;2.63;;;1.20;;
66597;SDS011;57424;53.128;6.406;2022-07-22T07:46:56;6.00;;;1.27;;
66597;SDS011;57424;53.128;6.406;2022-07-22T07:49:22;2.75;;;1.10;;
66597;SDS011;57424;53.128;6.406;2022-07-22T07:51:48;2.45;;;1.00;;
66597;SDS011;57424;53.128;6.406;2022-07-22T07:54:14;2.08;;;0.90;;
66597;SDS011;57424;53.128;6.406;2022-07-22T07:56:40;3.88;;;1.33;;
66597;SDS011;57424;53.128;6.406;2022-07-22T07:59:05;1.58;;;0.90;;
66597;SDS011;57424;53.128;6.406;2022-07-22T08:01:31;2.72;;;1.10;;
66597;SDS011;57424;53.128;6.406;2022-07-22T08:03:57;3.08;;;1.13;;
66597;SDS011;57424;53.128;6.406;2022-07-22T08:06:22;3.83;;;1.20;;
66597;SDS011;57424;53.128;6.406;2022-07-22T08:08:48;1.52;;;1.10;;
66597;SDS011;57424;53.128;6.406;2022-07-22T08:11:13;2.85;;;1.13;;
66597;SDS011;57424;53.128;6.406;2022-07-22T08:13:39;3.97;;;1.10;;
66597;SDS011;57424;53.128;6.406;2022-07-22T08:16:04;1.55;;;0.85;;
66597;SDS011;57424;53.128;6.406;2022-07-22T08:18:30;3.28;;;1.20;;
66597;SDS011;57424;53.128;6.406;2022-07-22T08:20:56;2.58;;;1.10;;
66597;SDS011;57424;53.128;6.406;2022-07-22T08:23:22;6.63;;;1.20;;
66597;SDS011;57424;53.128;6.406;2022-07-22T08:25:48;2.33;;;0.95;;
66597;SDS011;57424;53.128;6.406;2022-07-22T08:28:14;2.55;;;1.10;;
66597;SDS011;57424;53.128;6.406;2022-07-22T08:30:40;1.25;;;0.80;;
66597;SDS011;57424;53.128;6.406;2022-07-22T08:33:06;2.58;;;1.30;;
66597;SDS011;57424;53.128;6.406;2022-07-22T08:35:32;2.72;;;1.05;;
66597;SDS011;57424;53.128;6.406;2022-07-22T08:37:58;5.70;;;1.38;;
66597;SDS011;57424;53.128;6.406;2022-07-22T08:40:23;3.67;;;1.23;;
66597;SDS011;57424;53.128;6.406;2022-07-22T08:42:50;4.00;;;1.27;;
66597;SDS011;57424;53.128;6.406;2022-07-22T08:45:16;2.08;;;1.08;;
66597;SDS011;57424;53.128;6.406;2022-07-22T08:47:46;2.33;;;1.10;;
66597;SDS011;57424;53.128;6.406;2022-07-22T08:50:14;3.80;;;1.13;;
66597;SDS011;57424;53.128;6.406;2022-07-22T08:52:40;2.08;;;1.20;;
66597;SDS011;57424;53.128;6.406;2022-07-22T08:55:06;3.90;;;1.17;;
66597;SDS011;57424;53.128;6.406;2022-07-22T08:57:33;2.83;;;1.10;;
66597;SDS011;57424;53.128;6.406;2022-07-22T09:00:00;5.65;;;1.30;;
66597;SDS011;57424;53.128;6.406;2022-07-22T09:02:27;2.88;;;1.35;;
66597;SDS011;57424;53.128;6.406;2022-07-22T09:05:03;3.60;;;1.30;;
66597;SDS011;57424;53.128;6.406;2022-07-22T09:07:34;4.43;;;1.50;;
66597;SDS011;57424;53.128;6.406;2022-07-22T09:10:05;3.75;;;1.40;;
66597;SDS011;57424;53.128;6.406;2022-07-22T09:12:41;3.97;;;1.73;;
66597;SDS011;57424;53.128;6.406;2022-07-22T09:15:16;4.13;;;1.45;;
66597;SDS011;57424;53.128;6.406;2022-07-22T09:17:50;2.38;;;1.23;;
66597;SDS011;57424;53.128;6.406;2022-07-22T09:20:17;3.22;;;1.40;;
66597;SDS011;57424;53.128;6.406;2022-07-22T09:22:44;3.93;;;1.60;;
66597;SDS011;57424;53.128;6.406;2022-07-22T09:25:21;2.47;;;1.40;;
66597;SDS011;57424;53.128;6.406;2022-07-22T09:27:51;4.38;;;1.65;;
66597;SDS011;57424;53.128;6.406;2022-07-22T09:30:18;4.15;;;1.27;;
66597;SDS011;57424;53.128;6.406;2022-07-22T09:32:48;7.47;;;1.55;;
66597;SDS011;57424;53.128;6.406;2022-07-22T09:35:15;4.50;;;1.60;;
66597;SDS011;57424;53.128;6.406;2022-07-22T09:40:21;4.28;;;1.60;;
66597;SDS011;57424;53.128;6.406;2022-07-22T09:42:49;3.97;;;1.58;;
66597;SDS011;57424;53.128;6.406;2022-07-22T09:45:25;2.50;;;1.60;;
66597;SDS011;57424;53.128;6.406;2022-07-22T09:47:53;2.47;;;1.20;;
66597;SDS011;57424;53.128;6.406;2022-07-22T09:50:22;5.15;;;1.60;;
66597;SDS011;57424;53.128;6.406;2022-07-22T09:52:56;4.28;;;1.55;;
66597;SDS011;57424;53.128;6.406;2022-07-22T09:55:23;4.77;;;1.40;;
66597;SDS011;57424;53.128;6.406;2022-07-22T09:57:51;3.38;;;1.35;;
66597;SDS011;57424;53.128;6.406;2022-07-22T10:00:19;5.38;;;1.50;;
66597;SDS011;57424;53.128;6.406;2022-07-22T10:02:47;4.68;;;1.90;;
66597;SDS011;57424;53.128;6.406;2022-07-22T10:05:19;7.15;;;1.65;;
66597;SDS011;57424;53.128;6.406;2022-07-22T10:07:47;6.00;;;1.50;;
66597;SDS011;57424;53.128;6.406;2022-07-22T10:10:15;4.22;;;1.63;;
66597;SDS011;57424;53.128;6.406;2022-07-22T10:12:42;5.30;;;1.90;;
66597;SDS011;57424;53.128;6.406;2022-07-22T10:15:09;4.22;;;1.35;;
66597;SDS011;57424;53.128;6.406;2022-07-22T10:17:41;3.55;;;1.52;;
66597;SDS011;57424;53.128;6.406;2022-07-22T10:20:08;2.30;;;1.17;;
66597;SDS011;57424;53.128;6.406;2022-07-22T10:25:04;3.60;;;1.50;;
66597;SDS011;57424;53.128;6.406;2022-07-22T10:27:43;5.30;;;1.80;;
66597;SDS011;57424;53.128;6.406;2022-07-22T10:30:11;6.00;;;1.60;;
66597;SDS011;57424;53.128;6.406;2022-07-22T10:32:38;5.20;;;1.58;;
66597;SDS011;57424;53.128;6.406;2022-07-22T10:37:36;5.00;;;1.55;;
66597;SDS011;57424;53.128;6.406;2022-07-22T10:40:21;11.50;;;2.33;;
66597;SDS011;57424;53.128;6.406;2022-07-22T10:45:25;3.90;;;1.50;;
66597;SDS011;57424;53.128;6.406;2022-07-22T10:53:03;4.97;;;1.58;;
66597;SDS011;57424;53.128;6.406;2022-07-22T10:55:30;3.40;;;1.17;;
66597;SDS011;57424;53.128;6.406;2022-07-22T10:57:56;2.30;;;1.10;;
66597;SDS011;57424;53.128;6.406;2022-07-22T11:00:22;4.13;;;1.30;;
66597;SDS011;57424;53.128;6.406;2022-07-22T11:02:48;3.88;;;1.10;;
66597;SDS011;57424;53.128;6.406;2022-07-22T11:05:13;5.15;;;1.10;;
66597;SDS011;57424;53.128;6.406;2022-07-22T11:07:49;2.85;;;1.00;;
66597;SDS011;57424;53.128;6.406;2022-07-22T11:10:16;2.55;;;1.00;;
66597;SDS011;57424;53.128;6.406;2022-07-22T11:12:44;2.08;;;0.80;;
66597;SDS011;57424;53.128;6.406;2022-07-22T11:15:10;2.33;;;0.80;;
66597;SDS011;57424;53.128;6.406;2022-07-22T11:17:37;1.83;;;0.80;;
66597;SDS011;57424;53.128;6.406;2022-07-22T11:20:04;4.45;;;0.73;;
66597;SDS011;57424;53.128;6.406;2022-07-22T11:22:31;2.10;;;0.90;;
66597;SDS011;57424;53.128;6.406;2022-07-22T11:24:57;1.85;;;0.70;;
66597;SDS011;57424;53.128;6.406;2022-07-22T11:27:26;3.42;;;0.88;;
66597;SDS011;57424;53.128;6.406;2022-07-22T11:29:53;2.35;;;0.70;;
66597;SDS011;57424;53.128;6.406;2022-07-22T11:32:23;2.00;;;0.80;;
66597;SDS011;57424;53.128;6.406;2022-07-22T11:34:50;2.05;;;0.98;;
66597;SDS011;57424;53.128;6.406;2022-07-22T11:37:17;3.97;;;1.02;;
66597;SDS011;57424;53.128;6.406;2022-07-22T11:39:45;2.33;;;0.85;;
66597;SDS011;57424;53.128;6.406;2022-07-22T11:42:11;1.55;;;0.77;;
66597;SDS011;57424;53.128;6.406;2022-07-22T11:44:38;4.22;;;0.90;;
66597;SDS011;57424;53.128;6.406;2022-07-22T11:47:05;3.93;;;1.53;;
66597;SDS011;57424;53.128;6.406;2022-07-22T11:49:32;3.60;;;1.30;;
66597;SDS011;57424;53.128;6.406;2022-07-22T11:51:59;3.53;;;1.13;;
66597;SDS011;57424;53.128;6.406;2022-07-22T11:54:25;3.20;;;0.95;;
66597;SDS011;57424;53.128;6.406;2022-07-22T11:56:51;2.13;;;0.90;;
66597;SDS011;57424;53.128;6.406;2022-07-22T11:59:17;1.67;;;0.85;;
66597;SDS011;57424;53.128;6.406;2022-07-22T12:01:44;4.18;;;0.82;;
66597;SDS011;57424;53.128;6.406;2022-07-22T12:04:12;4.53;;;0.82;;
66597;SDS011;57424;53.128;6.406;2022-07-22T12:06:40;2.63;;;0.93;;
66597;SDS011;57424;53.128;6.406;2022-07-22T12:09:08;0.90;;;0.70;;
66597;SDS011;57424;53.128;6.406;2022-07-22T12:11:37;2.63;;;1.08;;
66597;SDS011;57424;53.128;6.406;2022-07-22T12:14:15;2.10;;;0.93;;
66597;SDS011;57424;53.128;6.406;2022-07-22T12:19:35;3.92;;;0.90;;
66597;SDS011;57424;53.128;6.406;2022-07-22T12:24:57;2.25;;;0.80;;
66597;SDS011;57424;53.128;6.406;2022-07-22T12:27:25;1.20;;;0.77;;
66597;SDS011;57424;53.128;6.406;2022-07-22T12:29:51;3.03;;;1.00;;
66597;SDS011;57424;53.128;6.406;2022-07-22T12:32:18;3.50;;;1.13;;
66597;SDS011;57424;53.128;6.406;2022-07-22T12:34:47;1.15;;;0.63;;
66597;SDS011;57424;53.128;6.406;2022-07-22T12:40:08;2.67;;;0.70;;
66597;SDS011;57424;53.128;6.406;2022-07-22T12:42:46;1.63;;;1.00;;
66597;SDS011;57424;53.128;6.406;2022-07-22T12:45:25;1.20;;;0.80;;
66597;SDS011;57424;53.128;6.406;2022-07-22T12:47:56;1.23;;;0.80;;
66597;SDS011;57424;53.128;6.406;2022-07-22T12:50:38;1.63;;;0.90;;
66597;SDS011;57424;53.128;6.406;2022-07-22T12:55:35;0.95;;;0.70;;
66597;SDS011;57424;53.128;6.406;2022-07-22T12:58:03;2.35;;;0.95;;
66597;SDS011;57424;53.128;6.406;2022-07-22T13:00:32;2.30;;;1.00;;
66597;SDS011;57424;53.128;6.406;2022-07-22T13:02:59;0.70;;;0.68;;
66597;SDS011;57424;53.128;6.406;2022-07-22T13:05:24;2.80;;;0.90;;
66597;SDS011;57424;53.128;6.406;2022-07-22T13:07:50;1.30;;;0.80;;
66597;SDS011;57424;53.128;6.406;2022-07-22T13:10:18;1.45;;;0.80;;
66597;SDS011;57424;53.128;6.406;2022-07-22T13:12:48;2.50;;;0.80;;
66597;SDS011;57424;53.128;6.406;2022-07-22T13:15:14;2.25;;;0.65;;
66597;SDS011;57424;53.128;6.406;2022-07-22T13:17:40;3.15;;;1.00;;
66597;SDS011;57424;53.128;6.406;2022-07-22T13:20:06;1.63;;;0.75;;
66597;SDS011;57424;53.128;6.406;2022-07-22T13:22:33;9.38;;;1.02;;
66597;SDS011;57424;53.128;6.406;2022-07-22T13:24:59;4.28;;;0.98;;
66597;SDS011;57424;53.128;6.406;2022-07-22T13:27:24;1.98;;;0.68;;
66597;SDS011;57424;53.128;6.406;2022-07-22T13:29:50;6.90;;;0.80;;
66597;SDS011;57424;53.128;6.406;2022-07-22T13:32:16;1.85;;;0.75;;
66597;SDS011;57424;53.128;6.406;2022-07-22T13:34:41;5.47;;;1.08;;
66597;SDS011;57424;53.128;6.406;2022-07-22T13:37:07;2.95;;;0.90;;
66597;SDS011;57424;53.128;6.406;2022-07-22T13:39:33;5.00;;;0.90;;
66597;SDS011;57424;53.128;6.406;2022-07-22T13:41:59;4.40;;;0.88;;
66597;SDS011;57424;53.128;6.406;2022-07-22T13:44:25;1.15;;;0.50;;
66597;SDS011;57424;53.128;6.406;2022-07-22T13:46:50;2.53;;;0.80;;
66597;SDS011;57424;53.128;6.406;2022-07-22T13:49:16;2.15;;;0.75;;
66597;SDS011;57424;53.128;6.406;2022-07-22T13:51:41;2.00;;;0.95;;
66597;SDS011;57424;53.128;6.406;2022-07-22T13:54:07;3.00;;;0.77;;
66597;SDS011;57424;53.128;6.406;2022-07-22T13:56:33;2.65;;;0.82;;
66597;SDS011;57424;53.128;6.406;2022-07-22T13:58:59;3.10;;;1.00;;
66597;SDS011;57424;53.128;6.406;2022-07-22T14:01:25;2.55;;;0.82;;
66597;SDS011;57424;53.128;6.406;2022-07-22T14:03:51;2.45;;;0.90;;
66597;SDS011;57424;53.128;6.406;2022-07-22T14:06:17;3.25;;;0.90;;
66597;SDS011;57424;53.128;6.406;2022-07-22T14:08:43;2.22;;;1.00;;
66597;SDS011;57424;53.128;6.406;2022-07-22T14:11:09;2.13;;;0.90;;
66597;SDS011;57424;53.128;6.406;2022-07-22T14:13:35;3.10;;;1.05;;
66597;SDS011;57424;53.128;6.406;2022-07-22T14:16:01;1.95;;;0.90;;
66597;SDS011;57424;53.128;6.406;2022-07-22T14:18:45;1.85;;;0.80;;
66597;SDS011;57424;53.128;6.406;2022-07-22T14:21:11;3.92;;;1.20;;
66597;SDS011;57424;53.128;6.406;2022-07-22T14:23:37;1.10;;;0.80;;
66597;SDS011;57424;53.128;6.406;2022-07-22T14:26:02;1.33;;;0.73;;
66597;SDS011;57424;53.128;6.406;2022-07-22T14:28:28;3.10;;;0.80;;
66597;SDS011;57424;53.128;6.406;2022-07-22T14:30:53;3.25;;;1.10;;
66597;SDS011;57424;53.128;6.406;2022-07-22T14:33:19;6.18;;;1.17;;
66597;SDS011;57424;53.128;6.406;2022-07-22T14:35:44;4.25;;;1.13;;
66597;SDS011;57424;53.128;6.406;2022-07-22T14:38:10;4.00;;;0.93;;
66597;SDS011;57424;53.128;6.406;2022-07-22T14:40:35;1.90;;;0.90;;
66597;SDS011;57424;53.128;6.406;2022-07-22T14:43:01;3.85;;;0.90;;
66597;SDS011;57424;53.128;6.406;2022-07-22T14:45:27;4.15;;;1.20;;
66597;SDS011;57424;53.128;6.406;2022-07-22T14:47:52;3.03;;;0.77;;
66597;SDS011;57424;53.128;6.406;2022-07-22T14:50:18;3.90;;;1.02;;
66597;SDS011;57424;53.128;6.406;2022-07-22T14:52:43;4.45;;;0.90;;
66597;SDS011;57424;53.128;6.406;2022-07-22T14:55:09;1.38;;;0.90;;
66597;SDS011;57424;53.128;6.406;2022-07-22T14:57:34;1.58;;;0.73;;
66597;SDS011;57424;53.128;6.406;2022-07-22T15:00:00;1.77;;;0.65;;
66597;SDS011;57424;53.128;6.406;2022-07-22T15:02:26;4.13;;;1.02;;
66597;SDS011;57424;53.128;6.406;2022-07-22T15:04:52;2.90;;;1.00;;
66597;SDS011;57424;53.128;6.406;2022-07-22T15:07:17;2.92;;;0.90;;
66597;SDS011;57424;53.128;6.406;2022-07-22T15:09:43;2.58;;;0.90;;
66597;SDS011;57424;53.128;6.406;2022-07-22T15:12:09;3.63;;;0.77;;